Little Lake, California

11:39 PM PDT on September 25, 2016 (GMT -0700)
RAWS | | Change Station

Elev 4149 ft 35.87 °N, 117.92 °W | Updated 1 hour ago

Clear
Clear
75.0 °F
Feels Like 75.0 °F
N
9.0
Wind Variable Wind from North
Gusts 16.0 mph

Today
High -- | Low -- °F
--% Chance of Precip.
Yesterday
High -- | Low -- °F
Precip. -- in
Pressure 30.08 in
Visibility 10.0 miles
Clouds Clear
Dew Point 19.0 °F
Humidity 12%
Rainfall in
Snow Depth Not available.
6:42 AM 6:43 PM
Waning Crescent, 21% visible
METAR KNID 260556Z AUTO 23004KT 10SM CLR 19/M09 A3013 RMK AO2 SLP185 T01941089 10339 20194 53014 $
Pressure 30.08 in
Visibility 10.0 miles
Clouds Clear
Dew Point 19.0 °F
Humidity 12%
Rainfall in
Snow Depth Not available.
6:42 AM 6:43 PM
Waning Crescent, 21% visible
METAR KNID 260556Z AUTO 23004KT 10SM CLR 19/M09 A3013 RMK AO2 SLP185 T01941089 10339 20194 53014 $

10-Day Weather Forecast

Almanac

Astronomy

Sep. 25, 2016 Rise Set
Actual Time
Civil Twilight
Nautical Twilight
Astronomical Twilight
Moon
Length of Visible Light
Length of Day
Tomorrow will be .
, % of the Moon is Illuminated

Today's Extremes

State Highs State Lows

Community

WunderPhotos

Upload Photos

1,941,853 photos uploaded!

WunderBlog® & News

Nearby

Air Quality

  Air Quality AQ Index Pollutant
Not available.

Snow Depth

Station Depth Elevation

Earthquake Activity

City Distance Mag. Time & Date
Minimum magnitude displayed is 2.5.

Coastal Water Temperatures

Place Temperature

Stations

Nearby Weather Stations

Station Location Temp. Windchill Dew Point Humidity Wind Precip. Elev Updated Type
                   

Watches & Warnings

There are currently no watches in effect.